createdAt,value
2023-03-27T00:01:25.675Z,37.50
2023-03-27T00:03:53.634Z,37.50
2023-03-27T00:06:21.111Z,37.50
2023-03-27T00:08:51.282Z,37.50
2023-03-27T00:11:18.761Z,37.50
2023-03-27T00:13:49.908Z,37.50
2023-03-27T00:16:20.211Z,37.60
2023-03-27T00:18:47.509Z,37.50
2023-03-27T00:21:14.700Z,37.50
2023-03-27T00:23:42.619Z,38.10
2023-03-27T00:26:12.141Z,37.60
2023-03-27T00:28:39.935Z,37.60
2023-03-27T00:31:15.218Z,37.60
2023-03-27T00:33:42.600Z,38.20
2023-03-27T00:36:10.661Z,37.60
2023-03-27T00:38:39.836Z,37.70
2023-03-27T00:41:08.868Z,37.70
2023-03-27T00:43:42.769Z,37.70
2023-03-27T00:46:39.578Z,37.70
2023-03-27T00:49:11.953Z,37.70
2023-03-27T00:51:42.337Z,37.70
2023-03-27T00:54:10.014Z,37.70
2023-03-27T00:56:38.869Z,37.80
2023-03-27T00:59:19.019Z,37.70
2023-03-27T01:01:46.696Z,37.80
2023-03-27T01:04:14.229Z,37.80
2023-03-27T01:06:42.863Z,37.80
2023-03-27T01:09:10.041Z,37.80
2023-03-27T01:12:09.019Z,37.80
2023-03-27T01:15:12.448Z,37.80
2023-03-27T01:18:19.239Z,37.80
2023-03-27T01:21:23.859Z,38.40
2023-03-27T01:24:30.688Z,37.90
2023-03-27T01:27:04.504Z,37.90
2023-03-27T01:30:01.132Z,37.90
2023-03-27T01:32:59.930Z,37.90
2023-03-27T01:35:38.321Z,37.90
2023-03-27T01:38:34.894Z,38.00
2023-03-27T01:41:23.971Z,38.00
2023-03-27T01:44:16.815Z,38.00
2023-03-27T01:46:57.811Z,38.00
2023-03-27T01:49:30.729Z,38.00
2023-03-27T01:52:04.961Z,38.00
2023-03-27T01:54:36.156Z,38.00
2023-03-27T01:57:24.940Z,38.00
2023-03-27T02:00:18.154Z,38.00
2023-03-27T02:02:51.754Z,38.00
2023-03-27T02:05:33.044Z,38.00
2023-03-27T02:08:10.602Z,38.00
2023-03-27T02:10:43.052Z,38.00
2023-03-27T02:13:21.621Z,38.00
2023-03-27T02:15:50.598Z,38.00
2023-03-27T02:18:26.679Z,37.90
2023-03-27T02:20:54.087Z,38.10
2023-03-27T02:23:23.081Z,38.00
2023-03-27T02:25:51.761Z,38.00
2023-03-27T02:28:47.031Z,38.00
2023-03-27T02:31:35.213Z,38.10
2023-03-27T02:34:36.111Z,38.10
2023-03-27T02:37:32.266Z,38.10
2023-03-27T02:40:26.378Z,38.10
2023-03-27T02:43:07.706Z,38.00
2023-03-27T02:46:05.580Z,38.10
2023-03-27T02:48:43.323Z,38.10
2023-03-27T02:51:24.810Z,38.10
2023-03-27T02:54:01.319Z,38.10
2023-03-27T02:56:32.313Z,38.20
2023-03-27T02:59:05.718Z,38.20
2023-03-27T03:01:34.862Z,38.10
2023-03-27T03:04:12.651Z,38.10
2023-03-27T03:06:42.382Z,38.10
2023-03-27T03:09:10.086Z,38.10
2023-03-27T03:11:46.309Z,38.10
2023-03-27T03:14:13.781Z,38.10
2023-03-27T03:16:41.233Z,38.10
2023-03-27T03:19:08.938Z,38.10
2023-03-27T03:21:36.387Z,38.10
2023-03-27T03:24:03.591Z,38.10
2023-03-27T03:26:30.600Z,38.10
2023-03-27T03:29:00.964Z,38.00
2023-03-27T03:31:44.410Z,38.10
2023-03-27T03:34:18.606Z,38.10
2023-03-27T03:36:50.057Z,38.00
2023-03-27T03:39:18.458Z,38.00
2023-03-27T03:41:45.666Z,38.00
2023-03-27T03:44:12.769Z,38.10
2023-03-27T03:46:40.213Z,38.10
2023-03-27T03:49:07.924Z,38.10
2023-03-27T03:51:35.955Z,38.10
2023-03-27T03:54:05.593Z,38.10
2023-03-27T03:56:34.552Z,38.00
2023-03-27T03:59:01.965Z,38.00
2023-03-27T04:01:29.212Z,38.00
2023-03-27T04:03:56.574Z,38.00
2023-03-27T04:06:26.665Z,38.00
2023-03-27T04:08:53.980Z,38.00
2023-03-27T04:11:21.224Z,38.00
2023-03-27T04:13:48.456Z,38.00
2023-03-27T04:16:15.763Z,38.50
2023-03-27T04:18:43.068Z,38.00
2023-03-27T04:21:18.054Z,37.90
2023-03-27T04:23:48.413Z,38.00
2023-03-27T04:26:16.258Z,37.90
2023-03-27T04:28:43.732Z,38.00
2023-03-27T04:31:11.004Z,37.90
2023-03-27T04:33:39.922Z,37.90
2023-03-27T04:36:08.735Z,37.90
2023-03-27T04:38:41.000Z,37.90
2023-03-27T04:41:08.178Z,37.80
2023-03-27T04:43:40.247Z,37.80
2023-03-27T04:46:08.166Z,37.80
2023-03-27T04:48:39.023Z,37.80
2023-03-27T04:51:09.437Z,37.90
2023-03-27T04:53:38.111Z,37.90
2023-03-27T04:56:06.256Z,37.90
2023-03-27T04:58:36.665Z,37.90
2023-03-27T05:01:05.801Z,37.80
2023-03-27T05:03:35.058Z,37.80
2023-03-27T05:06:04.261Z,37.80
2023-03-27T05:08:31.875Z,37.70
2023-03-27T05:10:59.059Z,37.70
2023-03-27T05:13:26.348Z,37.70
2023-03-27T05:15:54.241Z,37.70
2023-03-27T05:18:21.427Z,37.60
2023-03-27T05:20:51.457Z,37.70
2023-03-27T05:23:18.510Z,37.70
2023-03-27T05:25:59.367Z,37.80
2023-03-27T05:28:29.716Z,37.90
2023-03-27T05:30:57.775Z,37.80
2023-03-27T05:33:25.865Z,37.80
2023-03-27T05:35:53.325Z,37.70
2023-03-27T05:38:22.976Z,37.90
2023-03-27T05:40:52.342Z,37.70
2023-03-27T05:43:19.449Z,37.70
2023-03-27T05:45:46.666Z,37.70
2023-03-27T05:48:13.889Z,37.70
2023-03-27T05:50:42.330Z,37.70
2023-03-27T05:53:10.556Z,37.70
2023-03-27T05:55:38.948Z,37.90
2023-03-27T05:58:10.345Z,38.00
2023-03-27T06:00:42.308Z,38.30
2023-03-27T06:03:11.897Z,38.50
2023-03-27T06:05:40.610Z,38.60
2023-03-27T06:08:09.854Z,38.80
2023-03-27T06:10:37.177Z,38.90
2023-03-27T06:13:06.783Z,38.90
2023-03-27T06:15:35.263Z,38.80
2023-03-27T06:18:02.592Z,39.30
2023-03-27T06:20:30.215Z,38.70
2023-03-27T06:22:59.995Z,38.60
2023-03-27T06:25:31.489Z,38.60
2023-03-27T06:27:59.317Z,38.50
2023-03-27T06:30:27.699Z,38.50
2023-03-27T06:33:00.318Z,38.60
2023-03-27T06:35:30.376Z,38.60
2023-03-27T06:37:59.228Z,38.50
2023-03-27T06:40:28.427Z,38.50
2023-03-27T06:43:01.892Z,38.40
2023-03-27T06:45:33.647Z,38.20
2023-03-27T06:48:15.079Z,38.10
2023-03-27T06:50:48.734Z,38.10
2023-03-27T06:55:48.525Z,38.00
2023-03-27T06:58:18.998Z,38.00
2023-03-27T07:00:52.415Z,38.00
2023-03-27T07:03:22.853Z,38.00
2023-03-27T07:05:53.005Z,37.90
2023-03-27T07:08:25.160Z,37.90
2023-03-27T07:11:10.807Z,37.90
2023-03-27T07:13:41.442Z,37.90
2023-03-27T07:16:12.607Z,37.90
2023-03-27T07:18:42.057Z,37.80
2023-03-27T07:21:09.580Z,37.70
2023-03-27T07:23:36.854Z,37.80
2023-03-27T07:26:04.177Z,37.80
2023-03-27T07:28:32.887Z,37.80
2023-03-27T07:31:00.069Z,37.90
2023-03-27T07:33:27.259Z,37.90
2023-03-27T07:35:54.699Z,37.80
2023-03-27T07:38:22.355Z,37.90
2023-03-27T07:40:50.523Z,37.90
2023-03-27T07:43:17.574Z,37.90
2023-03-27T07:45:44.818Z,37.90
2023-03-27T07:48:16.395Z,37.80
2023-03-27T07:50:44.099Z,37.80
2023-03-27T07:53:33.450Z,37.80
2023-03-27T07:56:01.266Z,37.80
2023-03-27T07:58:29.374Z,37.80
2023-03-27T08:01:02.454Z,37.90
2023-03-27T08:03:31.043Z,37.90
2023-03-27T08:06:02.043Z,37.90
2023-03-27T08:08:29.608Z,38.50
2023-03-27T08:10:57.759Z,37.90
2023-03-27T08:13:25.319Z,37.90
2023-03-27T08:15:53.042Z,37.90
2023-03-27T08:18:20.228Z,37.90
2023-03-27T08:20:48.539Z,37.90
2023-03-27T08:23:15.584Z,37.80
2023-03-27T08:25:43.098Z,37.80
2023-03-27T08:28:10.210Z,37.80
2023-03-27T08:30:37.331Z,37.70
2023-03-27T08:33:05.055Z,37.80
2023-03-27T08:35:32.493Z,37.70
2023-03-27T08:37:59.598Z,37.70
2023-03-27T08:40:29.466Z,37.60
2023-03-27T08:43:01.576Z,37.60
2023-03-27T08:45:56.837Z,37.60
2023-03-27T08:48:31.053Z,37.60
2023-03-27T08:51:04.529Z,37.60
2023-03-27T08:54:08.293Z,37.50
2023-03-27T08:56:35.649Z,37.60
2023-03-27T08:59:03.078Z,37.50
2023-03-27T09:01:55.976Z,37.50
2023-03-27T09:04:51.136Z,37.50
2023-03-27T09:07:40.761Z,37.50
2023-03-27T09:10:42.090Z,37.50
2023-03-27T09:13:20.982Z,37.50
2023-03-27T09:16:11.332Z,37.80
2023-03-27T09:19:04.025Z,38.40
2023-03-27T09:21:45.599Z,37.70
2023-03-27T09:24:28.288Z,37.70
2023-03-27T09:27:06.855Z,37.60
2023-03-27T09:29:39.682Z,37.60
2023-03-27T09:32:14.824Z,37.60
2023-03-27T09:34:43.178Z,37.50
2023-03-27T09:37:17.482Z,37.50
2023-03-27T09:39:50.288Z,37.50
2023-03-27T09:42:24.462Z,37.40
2023-03-27T09:44:58.811Z,37.30
2023-03-27T09:47:38.550Z,37.20
2023-03-27T09:50:46.333Z,37.20
2023-03-27T09:53:19.409Z,37.10
2023-03-27T09:56:01.737Z,36.90
2023-03-27T09:58:35.582Z,36.90
2023-03-27T10:01:26.449Z,36.80
2023-03-27T10:03:56.536Z,36.60
2023-03-27T10:06:29.712Z,36.40
2023-03-27T10:09:01.286Z,36.40
2023-03-27T10:11:32.895Z,36.30
2023-03-27T10:14:10.391Z,36.00
2023-03-27T10:16:42.452Z,35.90
2023-03-27T10:19:28.199Z,35.70
2023-03-27T10:21:57.225Z,35.60
2023-03-27T10:24:36.220Z,36.10
2023-03-27T10:27:20.368Z,35.50
2023-03-27T10:29:48.472Z,35.30
2023-03-27T10:32:15.839Z,35.10
2023-03-27T10:34:58.354Z,35.30
2023-03-27T10:37:31.135Z,35.00
2023-03-27T10:40:09.582Z,34.90
2023-03-27T10:42:38.044Z,34.80
2023-03-27T10:45:07.780Z,34.70
2023-03-27T10:47:35.613Z,34.60
2023-03-27T10:50:28.553Z,34.60
2023-03-27T10:53:20.686Z,34.50
2023-03-27T10:56:11.926Z,34.40
2023-03-27T10:59:01.125Z,34.40
2023-03-27T11:01:45.364Z,31.10
2023-03-27T11:04:44.814Z,31.80
2023-03-27T11:07:28.473Z,32.70
2023-03-27T11:10:04.554Z,33.10
2023-03-27T11:12:36.390Z,33.30
2023-03-27T11:15:14.839Z,33.60
2023-03-27T11:18:01.074Z,33.70
2023-03-27T11:20:33.689Z,33.90
2023-03-27T11:23:10.247Z,33.80
2023-03-27T11:25:46.615Z,33.70
2023-03-27T11:28:32.784Z,33.80
2023-03-27T11:31:25.940Z,33.60
2023-03-27T11:34:08.595Z,33.90
2023-03-27T11:36:57.976Z,34.20
2023-03-27T11:39:48.412Z,34.10
2023-03-27T11:42:24.557Z,33.20
2023-03-27T11:44:53.446Z,33.10
2023-03-27T11:47:59.879Z,33.20
2023-03-27T11:50:43.396Z,33.50
2023-03-27T11:53:40.334Z,33.70
2023-03-27T11:56:26.504Z,33.70
2023-03-27T11:59:28.761Z,34.50
2023-03-27T12:02:35.639Z,34.00
2023-03-27T12:05:43.397Z,33.90
2023-03-27T12:08:37.510Z,34.10
2023-03-27T12:11:06.077Z,34.20
2023-03-27T12:14:02.738Z,34.10
2023-03-27T12:17:00.387Z,34.20
2023-03-27T12:19:50.126Z,34.20
2023-03-27T12:22:39.318Z,34.30
2023-03-27T12:25:29.997Z,34.20
2023-03-27T12:28:34.814Z,34.20
2023-03-27T12:31:41.933Z,34.20
2023-03-27T12:34:50.340Z,34.00
2023-03-27T12:37:20.342Z,33.80
2023-03-27T12:40:01.142Z,33.80
2023-03-27T12:42:50.524Z,33.70
2023-03-27T12:45:23.666Z,33.70
2023-03-27T12:48:19.356Z,33.70
2023-03-27T12:50:56.552Z,33.40
2023-03-27T12:53:46.835Z,33.50
2023-03-27T12:56:29.876Z,33.40
2023-03-27T12:58:57.772Z,33.30
2023-03-27T13:02:04.018Z,33.20
2023-03-27T13:05:24.082Z,33.10
2023-03-27T13:08:26.411Z,33.20
2023-03-27T13:14:42.871Z,32.80
2023-03-27T13:17:42.285Z,32.70
2023-03-27T13:20:37.419Z,32.60
2023-03-27T13:23:41.593Z,32.80
2023-03-27T13:26:48.946Z,32.50
2023-03-27T13:29:20.988Z,32.50
2023-03-27T13:32:02.749Z,32.30
2023-03-27T13:34:37.188Z,32.40
2023-03-27T13:37:43.787Z,32.50
2023-03-27T13:40:27.392Z,32.40
2023-03-27T13:43:12.267Z,32.60
2023-03-27T13:45:48.397Z,32.80
2023-03-27T13:48:41.287Z,32.60
2023-03-27T13:51:40.890Z,32.70
2023-03-27T13:54:48.053Z,32.70
2023-03-27T13:57:30.212Z,32.60
2023-03-27T14:00:37.919Z,32.60
2023-03-27T14:03:38.093Z,32.50
2023-03-27T14:06:24.992Z,32.60
2023-03-27T14:09:27.996Z,32.50
2023-03-27T14:12:19.758Z,32.60
2023-03-27T14:15:18.228Z,32.60
2023-03-27T14:18:00.520Z,32.90
2023-03-27T14:20:32.008Z,33.00
2023-03-27T14:23:13.431Z,33.10
2023-03-27T14:25:47.962Z,33.00
2023-03-27T14:28:34.861Z,33.00
2023-03-27T14:31:07.354Z,33.10
2023-03-27T14:37:31.965Z,33.10
2023-03-27T14:40:00.949Z,33.10
2023-03-27T14:42:33.086Z,32.90
2023-03-27T14:45:23.143Z,32.90
2023-03-27T14:47:55.871Z,32.80
2023-03-27T14:50:24.869Z,32.80
2023-03-27T14:52:54.532Z,32.80
2023-03-27T14:55:27.856Z,32.70
2023-03-27T14:57:58.872Z,33.00
2023-03-27T15:00:29.983Z,32.90
2023-03-27T15:03:02.113Z,32.80
2023-03-27T15:05:29.415Z,32.60
2023-03-27T15:08:07.913Z,32.60
2023-03-27T15:10:35.571Z,32.50
2023-03-27T15:13:02.634Z,32.80
2023-03-27T15:15:49.424Z,32.90
2023-03-27T15:18:33.108Z,32.70
2023-03-27T15:21:14.501Z,33.10
2023-03-27T15:24:05.704Z,33.30
2023-03-27T15:26:35.257Z,33.90
2023-03-27T15:29:32.484Z,34.40
2023-03-27T15:32:01.472Z,34.50
2023-03-27T15:34:34.805Z,34.60
2023-03-27T15:37:10.130Z,34.30
2023-03-27T15:39:57.771Z,34.10
2023-03-27T15:42:25.159Z,33.90
2023-03-27T15:44:52.259Z,33.70
2023-03-27T15:48:00.093Z,33.40
2023-03-27T15:53:09.193Z,32.90
2023-03-27T15:55:56.184Z,32.80
2023-03-27T15:58:32.763Z,32.60
2023-03-27T16:01:02.437Z,32.60
2023-03-27T16:03:35.005Z,32.70
2023-03-27T16:06:03.246Z,32.90
2023-03-27T16:08:46.394Z,32.80
2023-03-27T16:11:48.505Z,32.90
2023-03-27T16:14:28.808Z,32.90
2023-03-27T16:17:17.060Z,33.20
2023-03-27T16:19:57.687Z,33.30
2023-03-27T16:22:32.380Z,33.30
2023-03-27T16:25:12.985Z,33.40
2023-03-27T16:27:55.070Z,33.40
2023-03-27T16:30:54.720Z,33.30
2023-03-27T16:33:27.582Z,33.40
2023-03-27T16:35:56.806Z,33.70
2023-03-27T16:38:24.327Z,33.60
2023-03-27T16:40:52.439Z,33.60
2023-03-27T16:43:19.516Z,33.50
2023-03-27T16:45:46.902Z,33.50
2023-03-27T16:48:14.044Z,34.80
2023-03-27T16:50:41.265Z,35.60
2023-03-27T16:53:11.538Z,36.10
2023-03-27T16:55:38.483Z,36.30
2023-03-27T16:58:05.529Z,36.40
2023-03-27T17:00:32.619Z,36.40
2023-03-27T17:02:59.689Z,36.00
2023-03-27T17:05:29.504Z,35.80
2023-03-27T17:07:56.557Z,35.50
2023-03-27T17:10:23.566Z,35.20
2023-03-27T17:12:50.576Z,35.10
2023-03-27T17:15:17.687Z,34.90
2023-03-27T17:17:45.484Z,34.70
2023-03-27T17:20:12.875Z,34.70
2023-03-27T17:22:39.978Z,34.50
2023-03-27T17:25:07.945Z,34.40
2023-03-27T17:27:35.050Z,34.40
2023-03-27T17:30:04.042Z,34.30
2023-03-27T17:32:31.634Z,34.30
2023-03-27T17:34:58.809Z,34.30
2023-03-27T17:37:53.184Z,34.40
2023-03-27T17:40:21.292Z,34.40
2023-03-27T17:42:48.389Z,34.50
2023-03-27T17:45:15.488Z,34.40
2023-03-27T17:47:42.636Z,34.50
2023-03-27T17:50:09.891Z,34.40
2023-03-27T17:52:37.503Z,34.40
2023-03-27T17:55:05.053Z,34.30
2023-03-27T17:57:33.092Z,34.30
2023-03-27T18:00:00.176Z,34.20
2023-03-27T18:02:27.401Z,34.10
2023-03-27T18:05:13.780Z,34.10
2023-03-27T18:07:42.698Z,34.00
2023-03-27T18:10:19.366Z,33.80
2023-03-27T18:12:47.698Z,33.80
2023-03-27T18:15:18.676Z,33.70
2023-03-27T18:17:45.839Z,33.60
2023-03-27T18:20:13.021Z,33.50
2023-03-27T18:22:40.682Z,33.40
2023-03-27T18:25:09.668Z,33.30
2023-03-27T18:27:40.260Z,33.30
2023-03-27T18:30:12.442Z,33.30
2023-03-27T18:32:41.561Z,33.30
2023-03-27T18:35:13.003Z,33.30
2023-03-27T18:37:41.226Z,33.20
2023-03-27T18:40:11.113Z,33.20
2023-03-27T18:42:39.436Z,33.20
2023-03-27T18:45:11.569Z,33.10
2023-03-27T18:47:39.035Z,33.10
2023-03-27T18:50:06.992Z,33.10
2023-03-27T18:52:34.201Z,33.00
2023-03-27T18:55:01.281Z,32.90
2023-03-27T18:57:28.822Z,33.00
2023-03-27T18:59:55.942Z,32.90
2023-03-27T19:02:23.111Z,32.90
2023-03-27T19:04:51.190Z,32.90
2023-03-27T19:07:18.273Z,32.90
2023-03-27T19:09:46.197Z,32.80
2023-03-27T19:12:13.601Z,32.80
2023-03-27T19:14:41.715Z,32.80
2023-03-27T19:17:08.979Z,32.70
2023-03-27T19:19:36.400Z,32.70
2023-03-27T19:22:06.066Z,32.70
2023-03-27T19:24:33.249Z,32.70
2023-03-27T19:27:00.401Z,32.70
2023-03-27T19:29:27.681Z,32.60
2023-03-27T19:31:54.807Z,32.60
2023-03-27T19:34:32.702Z,32.50
2023-03-27T19:37:03.804Z,32.50
2023-03-27T19:39:30.854Z,32.40
2023-03-27T19:41:58.622Z,32.40
2023-03-27T19:44:28.086Z,32.40
2023-03-27T19:49:22.524Z,32.30
2023-03-27T19:51:49.617Z,32.20
2023-03-27T19:54:16.671Z,32.20
2023-03-27T19:56:44.184Z,32.10
2023-03-27T19:59:17.841Z,32.70
2023-03-27T20:01:51.512Z,32.10
2023-03-27T20:04:18.757Z,32.10
2023-03-27T20:06:49.562Z,32.00
2023-03-27T20:09:16.631Z,32.00
2023-03-27T20:11:44.049Z,32.00
2023-03-27T20:14:11.963Z,31.90
2023-03-27T20:16:39.202Z,31.90
2023-03-27T20:19:07.751Z,31.90
2023-03-27T20:21:38.150Z,31.90
2023-03-27T20:24:05.966Z,31.90
2023-03-27T20:26:39.301Z,31.80
2023-03-27T20:29:16.282Z,31.80
2023-03-27T20:32:03.401Z,31.80
2023-03-27T20:34:31.043Z,31.80
2023-03-27T20:36:59.119Z,31.70
2023-03-27T20:39:30.512Z,31.70
2023-03-27T20:41:59.304Z,31.70
2023-03-27T20:44:35.239Z,31.70
2023-03-27T20:47:12.648Z,31.70
2023-03-27T20:49:43.038Z,31.70
2023-03-27T20:52:10.912Z,31.70
2023-03-27T20:54:41.394Z,31.60
2023-03-27T20:57:09.122Z,31.60
2023-03-27T20:59:36.459Z,31.60
2023-03-27T21:02:05.224Z,31.60
2023-03-27T21:04:32.550Z,31.50
2023-03-27T21:07:02.618Z,31.50
2023-03-27T21:09:29.649Z,31.50
2023-03-27T21:11:57.312Z,31.50
2023-03-27T21:14:24.510Z,31.50
2023-03-27T21:16:51.532Z,31.50
2023-03-27T21:19:18.716Z,31.50
2023-03-27T21:21:45.765Z,31.50
2023-03-27T21:24:13.848Z,31.50
2023-03-27T21:26:41.608Z,31.50
2023-03-27T21:29:10.956Z,31.40
2023-03-27T21:31:39.337Z,31.40
2023-03-27T21:34:06.540Z,31.30
2023-03-27T21:36:34.216Z,31.40
2023-03-27T21:39:01.419Z,31.30
2023-03-27T21:41:28.952Z,31.40
2023-03-27T21:43:56.004Z,31.30
2023-03-27T21:46:23.748Z,31.30
2023-03-27T21:48:51.342Z,31.20
2023-03-27T21:51:19.085Z,31.30
2023-03-27T21:53:46.122Z,31.30
2023-03-27T21:56:13.485Z,31.20
2023-03-27T21:58:40.606Z,31.30
2023-03-27T22:01:07.818Z,31.30
2023-03-27T22:03:37.832Z,31.30
2023-03-27T22:06:12.368Z,31.30
2023-03-27T22:08:43.058Z,31.30
2023-03-27T22:11:11.602Z,31.30
2023-03-27T22:13:39.606Z,31.30
2023-03-27T22:16:12.433Z,31.30
2023-03-27T22:18:40.159Z,31.40
2023-03-27T22:21:22.986Z,31.40
2023-03-27T22:23:53.828Z,31.40
2023-03-27T22:26:23.875Z,31.40
2023-03-27T22:28:52.777Z,31.50
2023-03-27T22:31:24.546Z,31.50
2023-03-27T22:33:51.958Z,31.50
2023-03-27T22:36:19.798Z,31.50
2023-03-27T22:38:46.941Z,31.50
2023-03-27T22:41:15.062Z,31.60
2023-03-27T22:43:42.485Z,31.60
2023-03-27T22:46:13.547Z,31.60
2023-03-27T22:48:41.066Z,31.60
2023-03-27T22:51:10.197Z,31.50
2023-03-27T22:53:38.147Z,31.60
2023-03-27T22:56:06.526Z,31.60
2023-03-27T22:58:34.021Z,31.60
2023-03-27T23:01:01.174Z,31.60
2023-03-27T23:03:29.258Z,31.70
2023-03-27T23:05:56.793Z,31.70
2023-03-27T23:08:27.377Z,31.70
2023-03-27T23:10:56.722Z,31.70
2023-03-27T23:13:24.994Z,31.60
2023-03-27T23:15:52.398Z,31.60
2023-03-27T23:18:27.314Z,31.70
2023-03-27T23:21:00.472Z,31.70
2023-03-27T23:23:29.603Z,31.60
2023-03-27T23:25:58.191Z,31.70
2023-03-27T23:28:26.652Z,31.70
2023-03-27T23:30:56.647Z,31.60
2023-03-27T23:33:25.339Z,31.70
2023-03-27T23:35:54.429Z,31.70
2023-03-27T23:38:21.513Z,31.60
2023-03-27T23:40:58.135Z,31.60
2023-03-27T23:43:26.822Z,31.60
2023-03-27T23:45:55.840Z,31.60
2023-03-27T23:48:23.566Z,31.60
2023-03-27T23:50:51.924Z,31.60
2023-03-27T23:53:22.143Z,31.60
2023-03-27T23:55:49.293Z,31.60
2023-03-27T23:58:16.411Z,31.60
